sensor_id;sensor_type;location;lat;lon;timestamp;pressure;altitude;pressure_sealevel;temperature;humidity
67517;BME280;54359;59.124;37.910;2022-11-14T00:00:11;100566.56;;;-1.73;93.06
67517;BME280;54359;59.124;37.910;2022-11-14T00:03:02;100521.16;;;-1.98;93.06
67517;BME280;54359;59.124;37.910;2022-11-14T00:06:03;100558.56;;;-1.79;92.89
67517;BME280;54359;59.124;37.910;2022-11-14T00:08:57;100546.00;;;-1.91;93.03
67517;BME280;54359;59.124;37.910;2022-11-14T00:12:13;100573.44;;;-1.71;92.55
67517;BME280;54359;59.124;37.910;2022-11-14T00:15:07;100537.56;;;-1.92;93.01
67517;BME280;54359;59.124;37.910;2022-11-14T00:18:16;100577.72;;;-1.70;92.89
67517;BME280;54359;59.124;37.910;2022-11-14T00:21:00;100560.34;;;-1.78;92.83
67517;BME280;54359;59.124;37.910;2022-11-14T00:23:48;100529.03;;;-1.94;92.91
67517;BME280;54359;59.124;37.910;2022-11-14T00:26:38;100571.28;;;-1.78;93.04
67517;BME280;54359;59.124;37.910;2022-11-14T00:29:24;100571.81;;;-1.70;93.07
67517;BME280;54359;59.124;37.910;2022-11-14T00:32:11;100540.75;;;-1.94;92.94
67517;BME280;54359;59.124;37.910;2022-11-14T00:34:58;100527.31;;;-1.95;92.72
67517;BME280;54359;59.124;37.910;2022-11-14T00:37:47;100577.44;;;-1.74;92.74
67517;BME280;54359;59.124;37.910;2022-11-14T00:40:33;100574.25;;;-1.72;93.04
67517;BME280;54359;59.124;37.910;2022-11-14T00:43:19;100541.75;;;-1.92;93.13
67517;BME280;54359;59.124;37.910;2022-11-14T00:46:04;100568.09;;;-1.75;92.88
67517;BME280;54359;59.124;37.910;2022-11-14T00:48:51;100558.28;;;-1.84;93.14
67517;BME280;54359;59.124;37.910;2022-11-14T00:51:36;100573.03;;;-1.77;93.21
67517;BME280;54359;59.124;37.910;2022-11-14T00:54:22;100567.56;;;-1.83;92.99
67517;BME280;54359;59.124;37.910;2022-11-14T00:57:27;100575.09;;;-1.71;93.01
67517;BME280;54359;59.124;37.910;2022-11-14T01:04:38;100579.94;;;-1.74;92.88
67517;BME280;54359;59.124;37.910;2022-11-14T01:07:38;100539.97;;;-1.93;93.19
67517;BME280;54359;59.124;37.910;2022-11-14T01:10:46;100597.22;;;-1.67;92.92
67517;BME280;54359;59.124;37.910;2022-11-14T01:13:41;100521.19;;;-2.10;93.19
67517;BME280;54359;59.124;37.910;2022-11-14T01:16:39;100561.88;;;-1.80;92.81
67517;BME280;54359;59.124;37.910;2022-11-14T01:19:29;100558.50;;;-1.93;93.22
67517;BME280;54359;59.124;37.910;2022-11-14T01:22:26;100565.72;;;-1.86;92.94
67517;BME280;54359;59.124;37.910;2022-11-14T01:25:18;100545.91;;;-1.93;93.18
67517;BME280;54359;59.124;37.910;2022-11-14T01:28:09;100615.72;;;-1.55;93.86
67517;BME280;54359;59.124;37.910;2022-11-14T01:31:08;100581.91;;;-1.70;92.91
67517;BME280;54359;59.124;37.910;2022-11-14T01:34:20;100573.69;;;-1.79;93.10
67517;BME280;54359;59.124;37.910;2022-11-14T01:37:13;100610.69;;;-1.55;93.31
67517;BME280;54359;59.124;37.910;2022-11-14T01:40:02;100570.72;;;-1.74;93.22
67517;BME280;54359;59.124;37.910;2022-11-14T01:43:24;100626.09;;;-1.38;93.44
67517;BME280;54359;59.124;37.910;2022-11-14T01:46:31;100611.09;;;-1.49;93.30
67517;BME280;54359;59.124;37.910;2022-11-14T01:49:34;100563.19;;;-1.74;93.24
67517;BME280;54359;59.124;37.910;2022-11-14T01:52:36;100598.38;;;-1.50;93.42
67517;BME280;54359;59.124;37.910;2022-11-14T01:55:31;100584.28;;;-1.60;93.34
67517;BME280;54359;59.124;37.910;2022-11-14T01:58:28;100614.56;;;-1.35;92.98
67517;BME280;54359;59.124;37.910;2022-11-14T02:01:44;100592.88;;;-1.45;93.47
67517;BME280;54359;59.124;37.910;2022-11-14T02:05:27;100552.41;;;-1.71;93.23
67517;BME280;54359;59.124;37.910;2022-11-14T02:08:30;100599.88;;;-1.40;93.41
67517;BME280;54359;59.124;37.910;2022-11-14T02:11:27;100603.09;;;-1.43;93.44
67517;BME280;54359;59.124;37.910;2022-11-14T02:14:13;100631.72;;;-1.17;93.40
67517;BME280;54359;59.124;37.910;2022-11-14T02:17:17;100600.13;;;-1.37;93.64
67517;BME280;54359;59.124;37.910;2022-11-14T02:20:23;100638.06;;;-1.11;93.28
67517;BME280;54359;59.124;37.910;2022-11-14T02:23:31;100638.16;;;-1.09;93.37
67517;BME280;54359;59.124;37.910;2022-11-14T02:26:20;100641.66;;;-1.07;93.39
67517;BME280;54359;59.124;37.910;2022-11-14T02:29:09;100640.09;;;-1.05;93.74
67517;BME280;54359;59.124;37.910;2022-11-14T02:32:11;100599.06;;;-1.28;93.11
67517;BME280;54359;59.124;37.910;2022-11-14T02:34:55;100632.66;;;-1.04;93.27
67517;BME280;54359;59.124;37.910;2022-11-14T02:37:40;100622.94;;;-1.11;93.71
67517;BME280;54359;59.124;37.910;2022-11-14T02:40:27;100624.09;;;-1.06;93.35
67517;BME280;54359;59.124;37.910;2022-11-14T02:43:11;100596.97;;;-1.22;93.14
67517;BME280;54359;59.124;37.910;2022-11-14T02:45:57;100611.19;;;-1.10;93.62
67517;BME280;54359;59.124;37.910;2022-11-14T02:48:42;100598.41;;;-1.25;93.29
67517;BME280;54359;59.124;37.910;2022-11-14T02:51:30;100614.47;;;-1.11;93.41
67517;BME280;54359;59.124;37.910;2022-11-14T02:54:14;100630.56;;;-1.09;93.16
67517;BME280;54359;59.124;37.910;2022-11-14T02:57:00;100591.72;;;-1.25;93.27
67517;BME280;54359;59.124;37.910;2022-11-14T02:59:44;100593.03;;;-1.30;93.63
67517;BME280;54359;59.124;37.910;2022-11-14T03:02:32;100617.25;;;-1.20;93.46
67517;BME280;54359;59.124;37.910;2022-11-14T03:05:17;100641.00;;;-1.05;93.42
67517;BME280;54359;59.124;37.910;2022-11-14T03:08:03;100604.22;;;-1.26;93.51
67517;BME280;54359;59.124;37.910;2022-11-14T03:10:48;100634.97;;;-1.07;93.29
67517;BME280;54359;59.124;37.910;2022-11-14T03:13:35;100635.97;;;-1.05;93.41
67517;BME280;54359;59.124;37.910;2022-11-14T03:16:20;100644.28;;;-1.06;93.58
67517;BME280;54359;59.124;37.910;2022-11-14T03:19:06;100643.53;;;-1.05;93.41
67517;BME280;54359;59.124;37.910;2022-11-14T03:21:52;100650.13;;;-1.07;93.37
67517;BME280;54359;59.124;37.910;2022-11-14T03:24:38;100639.28;;;-1.17;93.41
67517;BME280;54359;59.124;37.910;2022-11-14T03:27:23;100654.53;;;-1.16;93.41
67517;BME280;54359;59.124;37.910;2022-11-14T03:30:09;100656.91;;;-1.06;93.40
67517;BME280;54359;59.124;37.910;2022-11-14T03:32:55;100658.66;;;-1.05;93.67
67517;BME280;54359;59.124;37.910;2022-11-14T03:35:42;100624.63;;;-1.23;93.32
67517;BME280;54359;59.124;37.910;2022-11-14T03:38:26;100627.34;;;-1.20;93.74
67517;BME280;54359;59.124;37.910;2022-11-14T03:41:10;100643.75;;;-1.13;93.76
67517;BME280;54359;59.124;37.910;2022-11-14T03:43:55;100615.09;;;-1.27;93.56
67517;BME280;54359;59.124;37.910;2022-11-14T03:46:40;100634.91;;;-1.20;93.21
67517;BME280;54359;59.124;37.910;2022-11-14T03:49:27;100653.97;;;-1.12;93.53
67517;BME280;54359;59.124;37.910;2022-11-14T03:52:12;100655.19;;;-1.18;93.43
67517;BME280;54359;59.124;37.910;2022-11-14T03:54:58;100641.38;;;-1.24;93.53
67517;BME280;54359;59.124;37.910;2022-11-14T03:57:43;100664.63;;;-1.28;93.71
67517;BME280;54359;59.124;37.910;2022-11-14T04:00:31;100667.69;;;-1.20;93.86
67517;BME280;54359;59.124;37.910;2022-11-14T04:03:19;100576.63;;;-1.62;93.29
67517;BME280;54359;59.124;37.910;2022-11-14T04:06:04;100640.03;;;-1.44;93.54
67517;BME280;54359;59.124;37.910;2022-11-14T04:08:49;100637.28;;;-1.47;93.26
67517;BME280;54359;59.124;37.910;2022-11-14T04:11:35;100644.19;;;-1.44;93.52
67517;BME280;54359;59.124;37.910;2022-11-14T04:14:21;100634.91;;;-1.57;93.48
67517;BME280;54359;59.124;37.910;2022-11-14T04:17:07;100611.25;;;-1.71;93.48
67517;BME280;54359;59.124;37.910;2022-11-14T04:19:52;100658.13;;;-1.49;93.48
67517;BME280;54359;59.124;37.910;2022-11-14T04:22:37;100675.34;;;-1.44;93.69
67517;BME280;54359;59.124;37.910;2022-11-14T04:25:22;100637.56;;;-1.67;93.63
67517;BME280;54359;59.124;37.910;2022-11-14T04:28:07;100649.47;;;-1.65;93.69
67517;BME280;54359;59.124;37.910;2022-11-14T04:35:47;100680.03;;;-1.48;93.85
67517;BME280;54359;59.124;37.910;2022-11-14T04:38:44;100694.28;;;-1.49;93.53
67517;BME280;54359;59.124;37.910;2022-11-14T04:41:31;100648.97;;;-1.72;93.41
67517;BME280;54359;59.124;37.910;2022-11-14T04:44:27;100691.56;;;-1.52;93.57
67517;BME280;54359;59.124;37.910;2022-11-14T04:48:06;100700.75;;;-1.52;93.81
67517;BME280;54359;59.124;37.910;2022-11-14T04:50:57;100704.06;;;-1.53;93.87
67517;BME280;54359;59.124;37.910;2022-11-14T04:53:42;100688.41;;;-1.61;93.37
67517;BME280;54359;59.124;37.910;2022-11-14T04:56:28;100689.81;;;-1.53;93.80
67517;BME280;54359;59.124;37.910;2022-11-14T04:59:13;100672.53;;;-1.72;93.71
67517;BME280;54359;59.124;37.910;2022-11-14T05:01:58;100687.22;;;-1.66;93.60
67517;BME280;54359;59.124;37.910;2022-11-14T05:04:43;100670.44;;;-1.77;94.06
67517;BME280;54359;59.124;37.910;2022-11-14T05:07:28;100682.28;;;-1.76;93.85
67517;BME280;54359;59.124;37.910;2022-11-14T05:10:13;100689.19;;;-1.74;93.75
67517;BME280;54359;59.124;37.910;2022-11-14T05:12:58;100695.53;;;-1.67;94.02
67517;BME280;54359;59.124;37.910;2022-11-14T05:15:43;100697.81;;;-1.58;93.61
67517;BME280;54359;59.124;37.910;2022-11-14T05:18:28;100675.03;;;-1.84;94.08
67517;BME280;54359;59.124;37.910;2022-11-14T05:21:14;100699.03;;;-1.53;93.90
67517;BME280;54359;59.124;37.910;2022-11-14T05:23:58;100693.44;;;-1.61;93.85
67517;BME280;54359;59.124;37.910;2022-11-14T05:26:42;100694.09;;;-1.64;93.85
67517;BME280;54359;59.124;37.910;2022-11-14T05:29:27;100711.19;;;-1.48;93.93
67517;BME280;54359;59.124;37.910;2022-11-14T05:32:11;100699.69;;;-1.56;93.89
67517;BME280;54359;59.124;37.910;2022-11-14T05:35:25;100687.84;;;-1.69;93.82
67517;BME280;54359;59.124;37.910;2022-11-14T05:38:28;100653.78;;;-1.87;93.17
67517;BME280;54359;59.124;37.910;2022-11-14T05:41:14;100718.31;;;-1.54;93.88
67517;BME280;54359;59.124;37.910;2022-11-14T05:44:00;100641.75;;;-1.91;93.77
67517;BME280;54359;59.124;37.910;2022-11-14T05:46:48;100704.72;;;-1.56;94.36
67517;BME280;54359;59.124;37.910;2022-11-14T05:49:34;100693.44;;;-1.61;94.21
67517;BME280;54359;59.124;37.910;2022-11-14T05:52:19;100673.72;;;-1.67;94.73
67517;BME280;54359;59.124;37.910;2022-11-14T05:55:03;100688.72;;;-1.56;94.21
67517;BME280;54359;59.124;37.910;2022-11-14T05:57:49;100698.47;;;-1.37;94.13
67517;BME280;54359;59.124;37.910;2022-11-14T06:06:42;100678.16;;;-1.27;94.74
67517;BME280;54359;59.124;37.910;2022-11-14T06:09:31;100702.69;;;-1.13;94.39
67517;BME280;54359;59.124;37.910;2022-11-14T06:12:44;100681.28;;;-1.18;94.52
67517;BME280;54359;59.124;37.910;2022-11-14T06:19:50;100673.97;;;-1.27;94.28
67517;BME280;54359;59.124;37.910;2022-11-14T06:25:40;100708.38;;;-1.15;94.48
67517;BME280;54359;59.124;37.910;2022-11-14T06:28:43;100696.00;;;-1.24;94.51
67517;BME280;54359;59.124;37.910;2022-11-14T06:31:54;100646.84;;;-1.54;94.48
67517;BME280;54359;59.124;37.910;2022-11-14T06:34:42;100663.38;;;-1.46;94.41
67517;BME280;54359;59.124;37.910;2022-11-14T06:41:47;100692.66;;;-1.11;94.81
67517;BME280;54359;59.124;37.910;2022-11-14T06:48:42;100708.75;;;-0.97;94.81
67517;BME280;54359;59.124;37.910;2022-11-14T06:52:18;100708.75;;;-0.97;94.45
67517;BME280;54359;59.124;37.910;2022-11-14T06:55:15;100701.97;;;-0.98;94.63
67517;BME280;54359;59.124;37.910;2022-11-14T07:04:11;100725.00;;;-1.06;94.83
67517;BME280;54359;59.124;37.910;2022-11-14T07:07:00;100669.59;;;-1.29;94.36
67517;BME280;54359;59.124;37.910;2022-11-14T07:09:44;100721.25;;;-0.99;94.71
67517;BME280;54359;59.124;37.910;2022-11-14T07:12:30;100727.63;;;-0.92;94.78
67517;BME280;54359;59.124;37.910;2022-11-14T07:15:22;100735.88;;;-0.70;94.90
67517;BME280;54359;59.124;37.910;2022-11-14T07:18:09;100739.22;;;-0.57;95.55
67517;BME280;54359;59.124;37.910;2022-11-14T07:21:03;100735.75;;;-0.46;95.37
67517;BME280;54359;59.124;37.910;2022-11-14T07:23:50;100723.25;;;-0.45;95.44
67517;BME280;54359;59.124;37.910;2022-11-14T07:26:36;100710.34;;;-0.36;95.61
67517;BME280;54359;59.124;37.910;2022-11-14T07:29:23;100721.63;;;-0.31;95.36
67517;BME280;54359;59.124;37.910;2022-11-14T07:32:18;100691.56;;;-0.39;95.60
67517;BME280;54359;59.124;37.910;2022-11-14T07:35:03;100726.59;;;-0.19;95.54
67517;BME280;54359;59.124;37.910;2022-11-14T07:37:48;100703.56;;;-0.24;95.26
67517;BME280;54359;59.124;37.910;2022-11-14T07:40:35;100708.91;;;-0.19;95.29
67517;BME280;54359;59.124;37.910;2022-11-14T07:43:33;100701.72;;;-0.26;95.27
67517;BME280;54359;59.124;37.910;2022-11-14T07:46:17;100699.19;;;-0.26;95.22
67517;BME280;54359;59.124;37.910;2022-11-14T07:49:02;100683.41;;;-0.35;94.99
67517;BME280;54359;59.124;37.910;2022-11-14T07:52:17;100706.47;;;-0.31;94.58
67517;BME280;54359;59.124;37.910;2022-11-14T08:02:29;100684.72;;;-0.29;95.25
67517;BME280;54359;59.124;37.910;2022-11-14T08:05:22;100685.88;;;-0.24;95.06
67517;BME280;54359;59.124;37.910;2022-11-14T08:08:08;100716.69;;;-0.03;95.34
67517;BME280;54359;59.124;37.910;2022-11-14T08:10:55;100730.25;;;0.11;95.05
67517;BME280;54359;59.124;37.910;2022-11-14T08:13:47;100713.19;;;-0.05;94.88
67517;BME280;54359;59.124;37.910;2022-11-14T08:17:00;100768.09;;;0.23;95.20
67517;BME280;54359;59.124;37.910;2022-11-14T08:20:25;100740.28;;;0.23;94.78
67517;BME280;54359;59.124;37.910;2022-11-14T08:23:14;100727.72;;;0.11;94.80
67517;BME280;54359;59.124;37.910;2022-11-14T08:26:04;100708.19;;;0.09;95.07
67517;BME280;54359;59.124;37.910;2022-11-14T08:29:00;100710.69;;;0.09;94.93
67517;BME280;54359;59.124;37.910;2022-11-14T08:31:49;100718.09;;;0.19;95.03
67517;BME280;54359;59.124;37.910;2022-11-14T08:34:37;100708.34;;;0.12;94.82
67517;BME280;54359;59.124;37.910;2022-11-14T08:37:41;100707.19;;;0.20;94.87
67517;BME280;54359;59.124;37.910;2022-11-14T08:40:29;100715.47;;;0.31;94.75
67517;BME280;54359;59.124;37.910;2022-11-14T08:43:44;100739.84;;;0.57;95.31
67517;BME280;54359;59.124;37.910;2022-11-14T08:46:34;100720.59;;;0.59;95.43
67517;BME280;54359;59.124;37.910;2022-11-14T08:49:18;100703.84;;;0.61;95.07
67517;BME280;54359;59.124;37.910;2022-11-14T08:52:05;100701.16;;;0.58;95.03
67517;BME280;54359;59.124;37.910;2022-11-14T08:54:51;100730.22;;;0.78;94.94
67517;BME280;54359;59.124;37.910;2022-11-14T08:57:36;100737.50;;;0.87;94.59
67517;BME280;54359;59.124;37.910;2022-11-14T09:00:31;100725.34;;;0.81;95.18
67517;BME280;54359;59.124;37.910;2022-11-14T09:03:16;100693.16;;;0.65;95.02
67517;BME280;54359;59.124;37.910;2022-11-14T09:06:05;100690.03;;;0.69;95.20
67517;BME280;54359;59.124;37.910;2022-11-14T09:09:40;100671.88;;;0.62;94.70
67517;BME280;54359;59.124;37.910;2022-11-14T09:12:38;100732.84;;;1.08;95.32
67517;BME280;54359;59.124;37.910;2022-11-14T09:15:28;100744.81;;;1.10;94.66
67517;BME280;54359;59.124;37.910;2022-11-14T09:18:24;100667.25;;;0.69;94.80
67517;BME280;54359;59.124;37.910;2022-11-14T09:21:14;100662.41;;;0.72;94.83
67517;BME280;54359;59.124;37.910;2022-11-14T09:39:15;100721.88;;;1.07;94.75
67517;BME280;54359;59.124;37.910;2022-11-14T09:45:20;100739.97;;;1.13;95.14
67517;BME280;54359;59.124;37.910;2022-11-14T09:48:11;100676.75;;;0.87;94.35
67517;BME280;54359;59.124;37.910;2022-11-14T09:51:14;100726.19;;;1.23;94.97
67517;BME280;54359;59.124;37.910;2022-11-14T09:54:07;100734.53;;;1.35;94.44
67517;BME280;54359;59.124;37.910;2022-11-14T09:56:59;100723.06;;;1.27;94.38
67517;BME280;54359;59.124;37.910;2022-11-14T09:59:46;100727.19;;;1.40;94.55
67517;BME280;54359;59.124;37.910;2022-11-14T10:02:42;100728.53;;;1.48;94.71
67517;BME280;54359;59.124;37.910;2022-11-14T10:11:50;100722.66;;;1.49;94.71
67517;BME280;54359;59.124;37.910;2022-11-14T10:17:53;100737.56;;;1.73;94.98
67517;BME280;54359;59.124;37.910;2022-11-14T10:26:33;100701.63;;;1.65;94.55
67517;BME280;54359;59.124;37.910;2022-11-14T10:32:44;100739.84;;;1.68;94.75
67517;BME280;54359;59.124;37.910;2022-11-14T10:35:40;100731.06;;;1.63;94.14
67517;BME280;54359;59.124;37.910;2022-11-14T10:38:42;100734.41;;;1.62;94.38
67517;BME280;54359;59.124;37.910;2022-11-14T10:41:33;100710.34;;;1.40;94.71
67517;BME280;54359;59.124;37.910;2022-11-14T10:44:23;100705.53;;;1.45;94.71
67517;BME280;54359;59.124;37.910;2022-11-14T10:47:18;100733.50;;;1.61;94.36
67517;BME280;54359;59.124;37.910;2022-11-14T10:50:43;100711.28;;;1.43;94.11
67517;BME280;54359;59.124;37.910;2022-11-14T10:53:56;100733.69;;;1.50;94.03
67517;BME280;54359;59.124;37.910;2022-11-14T10:56:51;100730.44;;;1.52;93.99
67517;BME280;54359;59.124;37.910;2022-11-14T10:59:37;100721.09;;;1.51;93.66
67517;BME280;54359;59.124;37.910;2022-11-14T11:02:21;100731.16;;;1.50;94.51
67517;BME280;54359;59.124;37.910;2022-11-14T11:05:17;100738.91;;;1.53;94.36
67517;BME280;54359;59.124;37.910;2022-11-14T11:08:01;100715.13;;;1.36;93.96
67517;BME280;54359;59.124;37.910;2022-11-14T11:11:11;100732.78;;;1.49;94.01
67517;BME280;54359;59.124;37.910;2022-11-14T11:14:16;100738.66;;;1.48;93.97
67517;BME280;54359;59.124;37.910;2022-11-14T11:17:13;100731.94;;;1.49;93.69
67517;BME280;54359;59.124;37.910;2022-11-14T11:20:40;100729.03;;;1.43;93.89
67517;BME280;54359;59.124;37.910;2022-11-14T11:23:25;100739.00;;;1.39;93.46
67517;BME280;54359;59.124;37.910;2022-11-14T11:26:25;100740.25;;;1.33;93.36
67517;BME280;54359;59.124;37.910;2022-11-14T11:29:16;100741.94;;;1.32;93.18
67517;BME280;54359;59.124;37.910;2022-11-14T11:32:02;100745.56;;;1.23;93.19
67517;BME280;54359;59.124;37.910;2022-11-14T11:34:46;100737.00;;;1.20;93.02
67517;BME280;54359;59.124;37.910;2022-11-14T11:37:43;100733.50;;;1.18;93.41
67517;BME280;54359;59.124;37.910;2022-11-14T11:40:33;100688.72;;;0.89;93.03
67517;BME280;54359;59.124;37.910;2022-11-14T11:49:49;100725.03;;;1.18;92.92
67517;BME280;54359;59.124;37.910;2022-11-14T11:53:35;100722.72;;;1.21;93.67
67517;BME280;54359;59.124;37.910;2022-11-14T11:57:33;100686.06;;;1.01;93.46
67517;BME280;54359;59.124;37.910;2022-11-14T12:00:27;100685.09;;;0.99;92.97
67517;BME280;54359;59.124;37.910;2022-11-14T12:04:03;100678.59;;;0.89;93.18
67517;BME280;54359;59.124;37.910;2022-11-14T12:07:32;100711.41;;;1.16;92.93
67517;BME280;54359;59.124;37.910;2022-11-14T12:10:27;100718.31;;;1.18;92.93
67517;BME280;54359;59.124;37.910;2022-11-14T12:13:55;100671.25;;;0.94;93.06
67517;BME280;54359;59.124;37.910;2022-11-14T12:36:14;100693.91;;;1.06;92.70
67517;BME280;54359;59.124;37.910;2022-11-14T12:39:00;100707.38;;;1.05;92.75
67517;BME280;54359;59.124;37.910;2022-11-14T12:41:46;100693.91;;;1.06;92.76
67517;BME280;54359;59.124;37.910;2022-11-14T12:44:33;100658.06;;;0.85;92.68
67517;BME280;54359;59.124;37.910;2022-11-14T12:47:23;100684.38;;;1.02;92.89
67517;BME280;54359;59.124;37.910;2022-11-14T12:50:29;100719.81;;;1.15;92.52
67517;BME280;54359;59.124;37.910;2022-11-14T12:56:45;100705.50;;;1.02;91.77
67517;BME280;54359;59.124;37.910;2022-11-14T12:59:51;100704.28;;;0.95;92.23
67517;BME280;54359;59.124;37.910;2022-11-14T13:10:51;100697.78;;;0.86;91.82
67517;BME280;54359;59.124;37.910;2022-11-14T13:14:10;100697.69;;;0.84;92.06
67517;BME280;54359;59.124;37.910;2022-11-14T13:18:08;100699.25;;;0.82;91.49
67517;BME280;54359;59.124;37.910;2022-11-14T13:21:24;100690.09;;;0.84;92.22
67517;BME280;54359;59.124;37.910;2022-11-14T13:27:42;100706.91;;;0.84;91.63
67517;BME280;54359;59.124;37.910;2022-11-14T13:33:56;100666.00;;;0.63;92.31
67517;BME280;54359;59.124;37.910;2022-11-14T13:40:27;100679.56;;;0.50;91.53
67517;BME280;54359;59.124;37.910;2022-11-14T13:50:10;100710.19;;;0.68;91.83
67517;BME280;54359;59.124;37.910;2022-11-14T13:53:22;100687.25;;;0.51;91.72
67517;BME280;54359;59.124;37.910;2022-11-14T13:56:48;100708.91;;;0.61;92.14
67517;BME280;54359;59.124;37.910;2022-11-14T14:00:01;100713.38;;;0.65;92.26
67517;BME280;54359;59.124;37.910;2022-11-14T14:08:31;100718.28;;;0.62;91.70
67517;BME280;54359;59.124;37.910;2022-11-14T14:14:39;100702.50;;;0.53;91.54
67517;BME280;54359;59.124;37.910;2022-11-14T14:17:55;100708.75;;;0.45;91.34
67517;BME280;54359;59.124;37.910;2022-11-14T14:20:44;100700.09;;;0.41;91.66
67517;BME280;54359;59.124;37.910;2022-11-14T14:23:48;100684.25;;;0.30;91.30
67517;BME280;54359;59.124;37.910;2022-11-14T14:30:03;100677.25;;;0.26;91.89
67517;BME280;54359;59.124;37.910;2022-11-14T14:33:21;100687.75;;;0.32;92.15
67517;BME280;54359;59.124;37.910;2022-11-14T14:36:35;100678.31;;;0.30;91.88
67517;BME280;54359;59.124;37.910;2022-11-14T14:39:22;100698.44;;;0.42;92.47
67517;BME280;54359;59.124;37.910;2022-11-14T14:42:12;100666.75;;;0.33;92.06
67517;BME280;54359;59.124;37.910;2022-11-14T14:44:57;100646.81;;;0.25;91.90
67517;BME280;54359;59.124;37.910;2022-11-14T14:47:45;100641.47;;;0.20;92.32
67517;BME280;54359;59.124;37.910;2022-11-14T14:50:42;100625.72;;;0.11;92.52
67517;BME280;54359;59.124;37.910;2022-11-14T14:53:33;100655.19;;;0.37;92.00
67517;BME280;54359;59.124;37.910;2022-11-14T14:56:19;100669.66;;;0.39;92.47
67517;BME280;54359;59.124;37.910;2022-11-14T14:59:19;100682.00;;;0.48;91.93
67517;BME280;54359;59.124;37.910;2022-11-14T15:02:12;100663.91;;;0.42;92.16
67517;BME280;54359;59.124;37.910;2022-11-14T15:05:00;100627.28;;;0.09;92.00
67517;BME280;54359;59.124;37.910;2022-11-14T15:07:46;100667.13;;;0.39;92.17
67517;BME280;54359;59.124;37.910;2022-11-14T15:10:33;100650.22;;;0.25;92.05
67517;BME280;54359;59.124;37.910;2022-11-14T15:13:18;100664.53;;;0.25;92.17
67517;BME280;54359;59.124;37.910;2022-11-14T15:16:04;100675.50;;;0.25;91.93
67517;BME280;54359;59.124;37.910;2022-11-14T15:18:51;100638.16;;;0.08;92.25
67517;BME280;54359;59.124;37.910;2022-11-14T15:21:36;100619.03;;;-0.02;92.14
67517;BME280;54359;59.124;37.910;2022-11-14T15:24:22;100679.59;;;0.23;92.30
67517;BME280;54359;59.124;37.910;2022-11-14T15:27:17;100659.66;;;0.14;91.77
67517;BME280;54359;59.124;37.910;2022-11-14T15:30:06;100638.56;;;0.01;92.24
67517;BME280;54359;59.124;37.910;2022-11-14T15:33:28;100662.75;;;0.24;92.33
67517;BME280;54359;59.124;37.910;2022-11-14T15:36:15;100661.31;;;0.27;92.17
67517;BME280;54359;59.124;37.910;2022-11-14T15:39:23;100663.25;;;0.31;92.16
67517;BME280;54359;59.124;37.910;2022-11-14T15:45:28;100661.69;;;0.33;91.67
67517;BME280;54359;59.124;37.910;2022-11-14T15:48:21;100681.63;;;0.29;91.92
67517;BME280;54359;59.124;37.910;2022-11-14T15:51:06;100634.00;;;0.08;91.92
67517;BME280;54359;59.124;37.910;2022-11-14T15:53:50;100652.25;;;0.17;91.94
67517;BME280;54359;59.124;37.910;2022-11-14T15:56:37;100636.44;;;0.07;91.96
67517;BME280;54359;59.124;37.910;2022-11-14T15:59:24;100644.41;;;0.13;91.89
67517;BME280;54359;59.124;37.910;2022-11-14T16:02:28;100618.34;;;-0.13;92.19
67517;BME280;54359;59.124;37.910;2022-11-14T16:05:19;100651.69;;;0.08;91.58
67517;BME280;54359;59.124;37.910;2022-11-14T16:08:04;100615.91;;;-0.11;92.11
67517;BME280;54359;59.124;37.910;2022-11-14T16:10:48;100643.25;;;-0.06;91.67
67517;BME280;54359;59.124;37.910;2022-11-14T16:13:33;100653.53;;;-0.03;92.13
67517;BME280;54359;59.124;37.910;2022-11-14T16:16:18;100600.84;;;-0.36;91.51
67517;BME280;54359;59.124;37.910;2022-11-14T16:19:03;100638.28;;;-0.04;91.81
67517;BME280;54359;59.124;37.910;2022-11-14T16:21:48;100603.47;;;-0.22;91.49
67517;BME280;54359;59.124;37.910;2022-11-14T16:24:32;100594.25;;;-0.21;92.18
67517;BME280;54359;59.124;37.910;2022-11-14T16:27:17;100629.75;;;-0.06;92.27
67517;BME280;54359;59.124;37.910;2022-11-14T16:30:02;100585.91;;;-0.20;92.26
67517;BME280;54359;59.124;37.910;2022-11-14T16:32:47;100635.34;;;0.03;92.15
67517;BME280;54359;59.124;37.910;2022-11-14T16:35:32;100613.31;;;0.01;92.08
67517;BME280;54359;59.124;37.910;2022-11-14T16:38:17;100608.56;;;-0.08;91.84
67517;BME280;54359;59.124;37.910;2022-11-14T16:41:05;100607.00;;;-0.06;91.80
67517;BME280;54359;59.124;37.910;2022-11-14T16:43:53;100574.25;;;-0.18;92.07
67517;BME280;54359;59.124;37.910;2022-11-14T16:46:38;100603.94;;;-0.01;92.13
67517;BME280;54359;59.124;37.910;2022-11-14T16:49:23;100600.66;;;0.01;92.33
67517;BME280;54359;59.124;37.910;2022-11-14T16:52:09;100585.88;;;-0.07;92.38
67517;BME280;54359;59.124;37.910;2022-11-14T16:54:54;100607.84;;;0.08;91.92
67517;BME280;54359;59.124;37.910;2022-11-14T16:57:38;100631.34;;;0.20;92.61
67517;BME280;54359;59.124;37.910;2022-11-14T17:00:23;100615.03;;;0.15;92.22
67517;BME280;54359;59.124;37.910;2022-11-14T17:03:08;100585.59;;;0.02;91.87
67517;BME280;54359;59.124;37.910;2022-11-14T17:05:52;100596.09;;;0.08;92.29
67517;BME280;54359;59.124;37.910;2022-11-14T17:08:37;100588.91;;;0.14;92.22
67517;BME280;54359;59.124;37.910;2022-11-14T17:11:22;100565.19;;;-0.01;92.29
67517;BME280;54359;59.124;37.910;2022-11-14T17:14:07;100589.66;;;0.13;92.24
67517;BME280;54359;59.124;37.910;2022-11-14T17:16:52;100586.53;;;0.17;91.88
67517;BME280;54359;59.124;37.910;2022-11-14T17:19:38;100583.16;;;0.17;92.30
67517;BME280;54359;59.124;37.910;2022-11-14T17:22:29;100566.03;;;0.13;92.38
67517;BME280;54359;59.124;37.910;2022-11-14T17:25:18;100581.84;;;0.24;92.39
67517;BME280;54359;59.124;37.910;2022-11-14T17:28:03;100581.97;;;0.25;92.09
67517;BME280;54359;59.124;37.910;2022-11-14T17:30:59;100600.50;;;0.39;92.18